Time;durP1;ratioP1;P1;durP2;ratioP2;P2;SDS_P1;SDS_P2;PMS_P1;PMS_P2;Temp;Humidity;BMP_temperature;BMP_pressure;BME280_temperature;BME280_humidity;BME280_pressure;Samples;Min_cycle;Max_cycle;Signal;HPM_P1;HPM_P2
2023/06/29 00:01:04;;;;;;;5.00;3.57;;;;;;;11.96;100.00;96388.56;7398473;19;20380;-72
2023/06/29 00:03:32;;;;;;;6.03;3.40;;;;;;;12.22;100.00;96414.69;7400558;19;20807;-72
2023/06/29 00:05:59;;;;;;;10.07;3.87;;;;;;;11.97;100.00;96388.22;7398439;19;20420;-72
2023/06/29 00:08:28;;;;;;;5.13;3.20;;;;;;;12.29;100.00;96421.00;7401700;19;20388;-72
2023/06/29 00:10:56;;;;;;;6.33;3.63;;;;;;;12.47;100.00;96426.81;7399946;19;20393;-71
2023/06/29 00:13:23;;;;;;;4.00;3.70;;;;;;;12.30;100.00;96427.84;7403303;19;20382;-71
2023/06/29 00:15:50;;;;;;;3.33;3.13;;;;;;;12.25;100.00;96421.97;7398713;19;20421;-71
2023/06/29 00:18:18;;;;;;;6.20;3.10;;;;;;;11.95;100.00;96401.03;7401606;19;20368;-71
2023/06/29 00:20:46;;;;;;;6.77;3.93;;;;;;;11.77;100.00;96399.69;7397958;19;20400;-71
2023/06/29 00:23:12;;;;;;;6.57;3.97;;;;;;;11.82;100.00;96410.09;7398151;19;20341;-71
2023/06/29 00:25:39;;;;;;;4.20;3.00;;;;;;;11.79;100.00;96408.88;7398324;19;20426;-70
2023/06/29 00:28:07;;;;;;;4.93;3.27;;;;;;;11.59;100.00;96393.81;7402295;19;20349;-70
2023/06/29 00:30:34;;;;;;;3.57;3.03;;;;;;;11.75;100.00;96386.78;7399210;19;20397;-70
2023/06/29 00:33:01;;;;;;;4.07;3.43;;;;;;;11.76;100.00;96400.81;7400436;19;20389;-70
2023/06/29 00:35:28;;;;;;;5.60;3.17;;;;;;;11.64;100.00;96406.88;7398307;19;20388;-70
2023/06/29 00:37:56;;;;;;;4.57;3.17;;;;;;;11.58;100.00;96399.47;7401846;19;20378;-70
2023/06/29 00:40:23;;;;;;;3.60;3.13;;;;;;;11.43;100.00;96411.47;7397736;19;20368;-70
2023/06/29 00:42:50;;;;;;;8.40;3.47;;;;;;;11.54;100.00;96409.94;7400188;19;20372;-70
2023/06/29 00:45:17;;;;;;;6.30;2.90;;;;;;;11.49;100.00;96405.66;7398593;19;20373;-70
2023/06/29 00:47:44;;;;;;;4.23;3.57;;;;;;;11.35;100.00;96388.50;7400098;19;20387;-71
2023/06/29 00:50:13;;;;;;;4.60;3.70;;;;;;;10.63;100.00;96399.34;7398521;19;20418;-71
2023/06/29 00:52:40;;;;;;;5.27;3.90;;;;;;;10.99;100.00;96400.56;7400224;19;20451;-71
2023/06/29 00:55:07;;;;;;;5.30;3.13;;;;;;;11.03;100.00;96368.94;7397960;19;20361;-71
2023/06/29 00:57:38;;;;;;;11.73;3.77;;;;;;;11.22;100.00;96385.09;7399919;19;20389;-70
2023/06/29 01:00:11;;;;;;;4.33;3.60;;;;;;;11.30;100.00;96394.78;7397991;19;20372;-71
2023/06/29 01:02:40;;;;;;;6.37;3.67;;;;;;;11.09;100.00;96363.13;7395766;19;20380;-71
2023/06/29 01:05:09;;;;;;;5.30;3.53;;;;;;;11.00;100.00;96388.91;7398467;19;20875;-72
2023/06/29 01:08:00;;;;;;;3.63;3.33;;;;;;;11.02;100.00;96404.44;7395647;19;20456;-71
2023/06/29 01:10:32;;;;;;;3.60;3.30;;;;;;;11.35;100.00;96407.84;7396951;19;20372;-70
2023/06/29 01:13:01;;;;;;;7.80;5.20;;;;;;;11.22;100.00;96375.28;7397912;19;20912;-71
2023/06/29 01:15:30;;;;;;;5.00;3.60;;;;;;;11.41;100.00;96397.78;7399251;19;20425;-70
2023/06/29 01:17:59;;;;;;;4.43;4.10;;;;;;;11.15;100.00;96382.97;7399913;19;20376;-71
2023/06/29 01:20:29;;;;;;;5.13;4.17;;;;;;;11.03;100.00;96369.72;7395894;19;20368;-71
2023/06/29 01:23:07;;;;;;;3.63;3.43;;;;;;;11.28;100.00;96383.00;7397750;19;20912;-70
2023/06/29 01:25:36;;;;;;;3.67;3.37;;;;;;;10.79;100.00;96362.47;7397404;19;20409;-70
2023/06/29 01:28:07;;;;;;;5.70;3.73;;;;;;;10.78;100.00;96365.44;7398512;19;20373;-70
2023/06/29 01:30:39;;;;;;;9.20;4.27;;;;;;;10.60;100.00;96384.13;7396834;19;20356;-71
2023/06/29 01:33:08;;;;;;;4.70;4.10;;;;;;;10.62;100.00;96363.41;7398439;19;20400;-70
2023/06/29 01:35:35;;;;;;;3.83;3.40;;;;;;;10.57;100.00;96366.28;7396228;19;20732;-71
2023/06/29 01:38:15;;;;;;;8.10;4.33;;;;;;;10.93;100.00;96386.00;7397926;19;20364;-70
2023/06/29 01:40:46;;;;;;;5.63;3.60;;;;;;;10.63;100.00;96362.31;7396838;19;20388;-71
2023/06/29 01:43:16;;;;;;;3.60;3.30;;;;;;;10.70;100.00;96369.75;7400096;19;20460;-71
2023/06/29 01:45:45;;;;;;;4.53;4.13;;;;;;;10.60;100.00;96383.34;7396709;19;20408;-71
2023/06/29 01:48:14;;;;;;;8.03;3.10;;;;;;;10.41;100.00;96352.09;7396030;19;20383;-71
2023/06/29 01:50:41;;;;;;;4.77;3.70;;;;;;;10.36;100.00;96382.13;7398376;19;20399;-72
2023/06/29 01:53:08;;;;;;;3.30;3.10;;;;;;;10.19;100.00;96373.53;7398021;19;20349;-72
2023/06/29 01:55:35;;;;;;;4.37;3.60;;;;;;;10.43;100.00;96388.78;7399803;19;20452;-72
2023/06/29 01:58:02;;;;;;;3.77;3.10;;;;;;;10.54;100.00;96382.00;7397587;19;20364;-72
2023/06/29 02:00:29;;;;;;;4.40;4.00;;;;;;;10.43;100.00;96388.78;7399166;19;20456;-72
2023/06/29 02:02:56;;;;;;;4.47;4.03;;;;;;;10.32;100.00;96368.03;7397991;19;20408;-72
2023/06/29 02:05:24;;;;;;;3.93;3.63;;;;;;;10.00;100.00;96382.66;7398860;19;20381;-72
2023/06/29 02:07:51;;;;;;;5.43;4.00;;;;;;;10.02;100.00;96383.16;7397338;19;20392;-72
2023/06/29 02:10:20;;;;;;;4.03;3.23;;;;;;;10.07;100.00;96367.09;7399395;19;20388;-72
2023/06/29 02:12:47;;;;;;;3.47;3.20;;;;;;;10.29;100.00;96378.47;7397453;19;20392;-72
2023/06/29 02:15:14;;;;;;;4.60;3.73;;;;;;;10.16;100.00;96368.91;7397568;19;20367;-72
2023/06/29 02:17:41;;;;;;;6.10;4.43;;;;;;;10.10;100.00;96362.25;7397836;19;20451;-72
2023/06/29 02:20:09;;;;;;;8.33;4.10;;;;;;;9.51;100.00;96357.03;7394817;19;20678;-72
2023/06/29 02:22:37;;;;;;;3.83;3.53;;;;;;;9.81;100.00;96371.75;7397244;19;20385;-72
2023/06/29 02:25:04;;;;;;;4.60;4.23;;;;;;;9.74;100.00;96351.13;7398434;19;20388;-72
2023/06/29 02:27:31;;;;;;;7.03;3.77;;;;;;;9.84;100.00;96376.41;7396947;19;20907;-72
2023/06/29 02:29:58;;;;;;;6.33;3.70;;;;;;;9.79;100.00;96376.59;7399925;19;20404;-72
2023/06/29 02:32:25;;;;;;;3.30;3.00;;;;;;;9.67;100.00;96358.03;7394308;19;20356;-72
2023/06/29 02:34:52;;;;;;;4.63;4.20;;;;;;;10.10;100.00;96380.75;7398791;19;20400;-72
2023/06/29 02:37:19;;;;;;;4.03;3.40;;;;;;;9.72;100.00;96341.97;7395441;19;20416;-72
2023/06/29 02:39:46;;;;;;;5.30;3.20;;;;;;;9.87;100.00;96351.22;7395904;19;20377;-72
2023/06/29 02:42:13;;;;;;;5.90;3.23;;;;;;;9.88;100.00;96360.69;7394747;19;20372;-72
2023/06/29 02:44:41;;;;;;;7.67;4.73;;;;;;;10.03;100.00;96370.72;7395895;19;20408;-72
2023/06/29 02:47:07;;;;;;;6.50;3.47;;;;;;;10.05;100.00;96355.31;7395219;19;20412;-72
2023/06/29 02:49:35;;;;;;;9.20;3.90;;;;;;;10.11;100.00;96355.88;7395279;19;20372;-72
2023/06/29 02:52:02;;;;;;;4.30;2.87;;;;;;;10.28;100.00;96355.78;7397113;19;20387;-72
2023/06/29 02:54:29;;;;;;;4.23;3.23;;;;;;;10.31;100.00;96358.56;7395731;19;20398;-72
2023/06/29 02:56:56;;;;;;;5.03;3.53;;;;;;;10.29;100.00;96389.06;7395793;19;20474;-72
2023/06/29 02:59:26;;;;;;;3.23;3.03;;;;;;;10.15;100.00;96375.25;7395794;19;20416;-72
2023/06/29 03:01:53;;;;;;;5.50;3.40;;;;;;;9.95;100.00;96374.16;7398922;19;20369;-72
2023/06/29 03:04:20;;;;;;;3.07;2.77;;;;;;;10.10;100.00;96368.31;7399054;19;20392;-72
2023/06/29 03:06:47;;;;;;;6.43;3.10;;;;;;;9.81;100.00;96347.22;7396011;19;20412;-72
2023/06/29 03:09:14;;;;;;;4.20;3.80;;;;;;;9.93;100.00;96344.66;7393855;19;20891;-72
2023/06/29 03:11:41;;;;;;;5.20;3.07;;;;;;;10.15;100.00;96373.44;7396853;19;20955;-72
2023/06/29 03:14:08;;;;;;;3.07;2.80;;;;;;;10.13;100.00;96366.91;7395587;19;20387;-72
2023/06/29 03:16:34;;;;;;;4.57;4.17;;;;;;;10.18;100.00;96367.50;7395014;19;20429;-72
2023/06/29 03:19:01;;;;;;;4.10;3.20;;;;;;;10.19;100.00;96371.69;7395450;19;20376;-72
2023/06/29 03:21:28;;;;;;;5.10;3.17;;;;;;;10.03;100.00;96357.50;7406420;19;20384;-71
2023/06/29 03:23:55;;;;;;;3.90;3.60;;;;;;;10.05;100.00;96369.28;7401435;19;20341;-71
2023/06/29 03:26:22;;;;;;;3.83;3.53;;;;;;;10.10;100.00;96372.81;7402155;19;20471;-71
2023/06/29 03:28:49;;;;;;;7.83;3.60;;;;;;;9.95;100.00;96363.59;7402271;19;20403;-71
2023/06/29 03:31:16;;;;;;;5.73;3.60;;;;;;;9.84;100.00;96371.13;7402946;19;20404;-71
2023/06/29 03:33:43;;;;;;;5.40;3.20;;;;;;;9.74;100.00;96371.47;7400644;19;20351;-71
2023/06/29 03:36:11;;;;;;;4.90;3.80;;;;;;;9.90;100.00;96375.13;7400910;19;20404;-71
2023/06/29 03:38:38;;;;;;;3.87;3.47;;;;;;;9.64;100.00;96356.03;7400543;19;20372;-71
2023/06/29 03:41:05;;;;;;;6.40;3.80;;;;;;;9.60;100.00;96360.38;7401148;19;20373;-71
2023/06/29 03:43:32;;;;;;;3.47;3.17;;;;;;;9.75;100.00;96367.78;7398226;19;20369;-71
2023/06/29 03:45:59;;;;;;;3.27;2.90;;;;;;;10.04;100.00;96366.97;7401284;19;20902;-71
2023/06/29 03:48:29;;;;;;;2.97;2.77;;;;;;;9.88;100.00;96340.34;7400353;19;20353;-71
2023/06/29 03:50:59;;;;;;;3.30;3.00;;;;;;;9.59;100.00;96338.47;7398896;19;20478;-71
2023/06/29 03:53:26;;;;;;;3.77;3.10;;;;;;;9.99;100.00;96362.63;7400509;19;20920;-71
2023/06/29 03:55:53;;;;;;;3.80;3.50;;;;;;;9.86;100.00;96317.97;7402552;19;20408;-71
2023/06/29 03:58:20;;;;;;;4.30;4.00;;;;;;;10.00;100.00;96335.13;7400388;19;20748;-71
2023/06/29 04:00:47;;;;;;;4.03;3.63;;;;;;;10.07;100.00;96342.53;7398844;19;20395;-71
2023/06/29 04:03:14;;;;;;;7.30;3.50;;;;;;;10.06;100.00;96339.13;7400721;19;20385;-71
2023/06/29 04:05:41;;;;;;;3.73;3.43;;;;;;;10.22;100.00;96365.00;7398763;19;20404;-71
2023/06/29 04:08:08;;;;;;;4.77;3.73;;;;;;;10.10;100.00;96346.41;7400619;19;20401;-71
2023/06/29 04:10:35;;;;;;;3.70;3.30;;;;;;;10.40;100.00;96358.47;7399019;19;20407;-71
2023/06/29 04:13:02;;;;;;;6.50;4.00;;;;;;;10.39;100.00;96358.78;7401963;19;20894;-71
2023/06/29 04:15:30;;;;;;;6.40;3.67;;;;;;;10.26;100.00;96324.38;7398613;19;20428;-71
2023/06/29 04:17:57;;;;;;;4.33;3.93;;;;;;;10.32;100.00;96327.63;7399941;19;20939;-71
2023/06/29 04:20:24;;;;;;;4.20;3.43;;;;;;;10.63;100.00;96338.53;7398380;19;20340;-71
2023/06/29 04:22:51;;;;;;;4.73;3.90;;;;;;;10.50;100.00;96334.28;7397659;19;20388;-71
2023/06/29 04:25:18;;;;;;;6.10;4.10;;;;;;;10.78;100.00;96354.88;7399127;19;20372;-72
2023/06/29 04:27:45;;;;;;;7.33;4.37;;;;;;;10.74;100.00;96328.31;7401499;19;20426;-71
2023/06/29 04:30:12;;;;;;;7.07;4.50;;;;;;;10.79;100.00;96361.72;7398308;19;20395;-71
2023/06/29 04:32:39;;;;;;;5.37;4.00;;;;;;;10.66;100.00;96350.31;7399761;19;20412;-71
2023/06/29 04:35:08;;;;;;;5.27;4.53;;;;;;;10.99;100.00;96349.53;7398513;19;20441;-71
2023/06/29 04:37:42;;;;;;;4.27;3.90;;;;;;;11.29;100.00;96353.53;7399883;19;20352;-71
2023/06/29 04:40:10;;;;;;;3.77;3.50;;;;;;;11.20;100.00;96329.81;7397644;19;20376;-72
2023/06/29 04:42:43;;;;;;;6.60;3.57;;;;;;;11.78;100.00;96351.69;7398307;19;20430;-72
2023/06/29 04:45:12;;;;;;;4.10;3.70;;;;;;;12.02;100.00;96360.72;7398067;19;20428;-72
2023/06/29 04:47:40;;;;;;;5.30;4.30;;;;;;;11.89;100.00;96332.72;7400105;19;20412;-72
2023/06/29 04:50:08;;;;;;;4.33;3.90;;;;;;;12.07;100.00;96363.91;7398251;19;20412;-71
2023/06/29 04:52:36;;;;;;;4.60;4.20;;;;;;;11.98;100.00;96343.94;7400144;19;20377;-71
2023/06/29 04:55:04;;;;;;;5.90;4.03;;;;;;;12.33;100.00;96338.91;7398402;19;20783;-71
2023/06/29 04:57:31;;;;;;;4.70;4.20;;;;;;;12.41;100.00;96349.34;7399809;19;20371;-71
2023/06/29 04:59:58;;;;;;;6.77;5.13;;;;;;;12.63;100.00;96365.84;7398604;19;20393;-72
2023/06/29 05:02:25;;;;;;;4.40;3.90;;;;;;;12.67;100.00;96361.41;7398327;19;20907;-72
2023/06/29 05:04:52;;;;;;;4.03;3.67;;;;;;;12.70;100.00;96334.22;7398756;19;20378;-72
2023/06/29 05:07:19;;;;;;;4.50;4.10;;;;;;;13.27;100.00;96360.34;7397608;19;20432;-72
2023/06/29 05:09:46;;;;;;;4.87;4.47;;;;;;;13.42;100.00;96364.13;7398131;19;20392;-72
2023/06/29 05:12:14;;;;;;;4.40;4.10;;;;;;;13.40;100.00;96366.34;7399705;19;20372;-72
2023/06/29 05:14:41;;;;;;;4.93;4.53;;;;;;;13.58;100.00;96358.78;7398036;19;20366;-72
2023/06/29 05:17:08;;;;;;;9.03;4.30;;;;;;;13.81;100.00;96359.72;7395247;19;20428;-72
2023/06/29 05:19:36;;;;;;;5.53;4.00;;;;;;;13.51;100.00;96358.63;7397898;19;20367;-72
2023/06/29 05:22:03;;;;;;;10.23;3.50;;;;;;;13.70;100.00;96339.31;7395351;19;20925;-71
2023/06/29 05:24:30;;;;;;;5.20;4.50;;;;;;;13.63;100.00;96347.91;7396270;19;20374;-71
2023/06/29 05:26:57;;;;;;;3.73;3.53;;;;;;;13.88;100.00;96364.41;7394526;19;20429;-71
2023/06/29 05:29:24;;;;;;;4.10;3.80;;;;;;;13.90;100.00;96359.53;7399447;19;20374;-72
2023/06/29 05:31:51;;;;;;;5.57;3.40;;;;;;;13.82;100.00;96345.31;7397796;19;20365;-72
2023/06/29 05:34:18;;;;;;;4.40;3.60;;;;;;;14.05;100.00;96358.72;7397795;19;20371;-72
2023/06/29 05:36:45;;;;;;;3.80;3.50;;;;;;;13.99;100.00;96369.97;7395549;19;20429;-72
2023/06/29 05:39:12;;;;;;;6.73;3.67;;;;;;;14.10;100.00;96341.72;7400820;19;20382;-72
2023/06/29 05:41:38;;;;;;;3.90;3.60;;;;;;;14.25;100.00;96342.78;7398163;19;20389;-72
2023/06/29 05:44:08;;;;;;;3.60;3.30;;;;;;;14.23;100.00;96368.94;7397513;19;20924;-72
2023/06/29 05:46:36;;;;;;;4.97;3.30;;;;;;;14.31;100.00;96355.47;7395217;19;20802;-72
2023/06/29 05:49:06;;;;;;;4.90;4.50;;;;;;;14.47;100.00;96345.56;7398030;19;20695;-72
2023/06/29 05:51:34;;;;;;;4.10;3.70;;;;;;;14.37;100.00;96347.97;7396129;19;20385;-72
2023/06/29 05:54:02;;;;;;;4.07;3.67;;;;;;;14.64;100.00;96346.25;7399303;19;20337;-72
2023/06/29 05:56:28;;;;;;;4.20;3.80;;;;;;;14.69;100.00;96370.69;7395007;19;20948;-72
2023/06/29 05:58:56;;;;;;;7.13;3.40;;;;;;;14.66;100.00;96363.38;7399219;19;20347;-72
2023/06/29 06:01:23;;;;;;;4.23;3.73;;;;;;;15.08;100.00;96346.66;7396010;19;20375;-72
2023/06/29 06:03:49;;;;;;;5.13;4.63;;;;;;;15.62;100.00;96370.44;7397774;19;20367;-72
2023/06/29 06:06:17;;;;;;;4.10;3.43;;;;;;;16.03;100.00;96367.97;7395464;19;20454;-72
2023/06/29 06:08:43;;;;;;;7.33;3.67;;;;;;;16.15;100.00;96358.97;7397675;19;20405;-72
2023/06/29 06:11:10;;;;;;;12.33;3.03;;;;;;;16.26;100.00;96378.56;7396277;19;20374;-72
2023/06/29 06:13:37;;;;;;;3.60;3.40;;;;;;;16.59;100.00;96372.50;7399036;19;20355;-73
2023/06/29 06:16:04;;;;;;;3.60;3.30;;;;;;;16.95;100.00;96376.34;7396976;19;20474;-72
2023/06/29 06:18:31;;;;;;;3.47;3.17;;;;;;;16.98;100.00;96380.22;7397553;19;20407;-72
2023/06/29 06:20:58;;;;;;;2.73;2.53;;;;;;;16.95;100.00;96375.59;7395880;19;20744;-72
2023/06/29 06:23:25;;;;;;;10.90;5.10;;;;;;;17.37;100.00;96354.63;7395895;19;20405;-72
2023/06/29 06:25:52;;;;;;;3.30;3.00;;;;;;;17.49;100.00;96364.25;7396651;19;20431;-72
2023/06/29 06:28:20;;;;;;;9.30;5.57;;;;;;;17.68;100.00;96368.63;7408015;19;20370;-73
2023/06/29 06:30:48;;;;;;;4.30;3.23;;;;;;;17.62;100.00;96381.53;7427877;19;20884;-72
2023/06/29 06:33:15;;;;;;;4.00;3.70;;;;;;;17.89;100.00;96384.06;7430837;19;20386;-72
2023/06/29 06:35:44;;;;;;;2.80;2.60;;;;;;;17.78;100.00;96357.25;7429232;19;20412;-72
2023/06/29 06:38:10;;;;;;;3.50;3.30;;;;;;;17.53;100.00;96349.03;7428318;19;20431;-72
2023/06/29 06:40:37;;;;;;;4.60;2.93;;;;;;;18.17;100.00;96368.22;7430223;19;20376;-70
2023/06/29 06:43:04;;;;;;;6.60;3.20;;;;;;;18.25;100.00;96374.34;7427735;19;20422;-71
2023/06/29 06:45:31;;;;;;;5.20;3.40;;;;;;;18.64;100.00;96358.50;7426200;19;20431;-72
2023/06/29 06:47:58;;;;;;;3.57;3.20;;;;;;;18.86;100.00;96386.88;7409446;19;20428;-72
2023/06/29 06:50:25;;;;;;;3.03;2.77;;;;;;;18.96;100.00;96371.97;7401865;19;20896;-73
2023/06/29 06:52:52;;;;;;;4.40;3.20;;;;;;;19.66;99.07;96377.84;7398833;19;20399;-73
2023/06/29 06:55:19;;;;;;;3.40;3.10;;;;;;;19.94;94.41;96388.56;7400432;19;20964;-73
2023/06/29 06:57:47;;;;;;;3.30;3.10;;;;;;;19.60;93.07;96392.78;7397111;19;20362;-73
2023/06/29 07:00:14;;;;;;;3.30;3.03;;;;;;;19.80;94.28;96390.50;7399919;19;20356;-73
2023/06/29 07:02:41;;;;;;;5.87;3.17;;;;;;;19.76;92.24;96366.31;7402130;19;20401;-73
2023/06/29 07:05:08;;;;;;;3.60;3.10;;;;;;;19.87;94.41;96393.16;7405546;19;20413;-73
2023/06/29 07:07:36;;;;;;;4.30;3.63;;;;;;;19.87;92.24;96366.31;7403943;19;20408;-73
2023/06/29 07:10:04;;;;;;;3.30;3.10;;;;;;;19.83;95.86;96382.44;7405840;19;20352;-73
2023/06/29 07:12:31;;;;;;;5.80;3.87;;;;;;;19.71;94.08;96353.31;7401919;19;20360;-73
2023/06/29 07:14:58;;;;;;;3.03;2.57;;;;;;;19.53;96.92;96352.53;7403065;19;20382;-73
2023/06/29 07:17:26;;;;;;;6.40;2.77;;;;;;;20.15;91.60;96373.56;7401466;19;20432;-73
2023/06/29 07:19:53;;;;;;;3.33;3.03;;;;;;;20.24;89.86;96363.19;7407648;19;20404;-73
2023/06/29 07:22:23;;;;;;;3.60;3.23;;;;;;;20.83;86.27;96357.97;7402499;19;20364;-72
2023/06/29 07:25:11;;;;;;;3.10;2.80;;;;;;;20.38;85.25;96361.22;7401072;19;20984;-72
2023/06/29 07:27:38;;;;;;;3.37;3.07;;;;;;;20.42;83.91;96374.66;7400356;19;20388;-71
2023/06/29 07:30:06;;;;;;;2.97;2.70;;;;;;;20.46;85.67;96367.38;7398698;19;20357;-72
2023/06/29 07:32:33;;;;;;;3.23;2.93;;;;;;;20.64;84.53;96367.28;7400300;19;20385;-72
2023/06/29 07:35:00;;;;;;;6.70;3.07;;;;;;;21.11;82.63;96365.91;7398966;19;20456;-72
2023/06/29 07:37:27;;;;;;;3.77;2.87;;;;;;;21.46;82.31;96359.53;7399569;19;20425;-73
2023/06/29 07:39:54;;;;;;;3.93;2.73;;;;;;;21.66;81.25;96357.06;7402952;19;20362;-73
2023/06/29 07:42:20;;;;;;;4.30;3.10;;;;;;;21.79;81.01;96349.28;7404081;19;20385;-73
2023/06/29 07:45:05;;;;;;;4.30;3.40;;;;;;;21.86;80.82;96361.91;7405987;19;20386;-73
2023/06/29 07:47:32;;;;;;;3.63;3.33;;;;;;;21.77;79.08;96354.28;7407309;19;20378;-73
2023/06/29 07:49:59;;;;;;;3.43;2.63;;;;;;;21.79;78.50;96355.44;7405476;19;20408;-73
2023/06/29 07:52:26;;;;;;;3.60;2.70;;;;;;;22.00;77.05;96362.53;7403751;19;20414;-73
2023/06/29 07:54:54;;;;;;;3.50;2.53;;;;;;;22.12;78.30;96347.81;7406054;19;20726;-73
2023/06/29 07:57:20;;;;;;;3.30;3.00;;;;;;;22.13;76.63;96335.88;7405613;19;20395;-73
2023/06/29 07:59:50;;;;;;;5.40;3.20;;;;;;;22.96;75.75;96345.28;7400660;19;20739;-72
2023/06/29 08:02:17;;;;;;;3.13;2.93;;;;;;;22.50;74.63;96339.69;7401021;19;20363;-72
2023/06/29 08:04:44;;;;;;;4.40;2.97;;;;;;;22.58;73.37;96338.47;7400579;19;20394;-72
2023/06/29 08:07:14;;;;;;;5.47;2.57;;;;;;;23.17;74.11;96346.91;7400634;19;20428;-73
2023/06/29 08:09:41;;;;;;;4.97;3.00;;;;;;;23.09;73.75;96328.53;7400548;19;20374;-73
2023/06/29 08:12:08;;;;;;;3.10;2.80;;;;;;;23.14;72.21;96345.03;7398567;19;20374;-74
2023/06/29 08:14:37;;;;;;;3.10;2.63;;;;;;;23.43;73.87;96331.13;7401527;19;20374;-73
2023/06/29 08:17:04;;;;;;;2.97;2.70;;;;;;;23.89;72.76;96341.91;7396586;19;20450;-72
2023/06/29 08:19:31;;;;;;;5.50;3.00;;;;;;;23.80;70.28;96340.94;7400189;19;20472;-72
2023/06/29 08:21:58;;;;;;;3.47;2.63;;;;;;;23.42;69.66;96324.19;7401123;19;20926;-72
2023/06/29 08:24:25;;;;;;;3.57;2.80;;;;;;;23.29;68.80;96342.91;7399999;19;20378;-72
2023/06/29 08:26:52;;;;;;;3.93;3.63;;;;;;;23.49;70.04;96356.44;7399840;19;20387;-72
2023/06/29 08:29:19;;;;;;;3.23;2.93;;;;;;;23.93;70.62;96341.09;7399574;19;20930;-72
2023/06/29 08:31:46;;;;;;;4.00;2.93;;;;;;;24.08;69.11;96336.97;7402763;19;20358;-72
2023/06/29 08:34:13;;;;;;;3.10;2.80;;;;;;;24.24;68.35;96336.28;7399633;19;20380;-72
2023/06/29 08:36:40;;;;;;;3.53;2.80;;;;;;;23.61;68.67;96322.75;7395371;19;20410;-72
2023/06/29 08:39:08;;;;;;;3.83;2.80;;;;;;;24.15;69.33;96340.28;7399648;19;20369;-72
2023/06/29 08:41:35;;;;;;;2.50;2.30;;;;;;;24.23;65.11;96308.50;7398364;19;20371;-72
2023/06/29 08:44:04;;;;;;;7.47;3.43;;;;;;;24.45;61.57;96333.97;7397903;19;20387;-72
2023/06/29 08:46:32;;;;;;;3.37;3.07;;;;;;;24.10;62.34;96331.91;7396492;19;20474;-73
2023/06/29 08:49:00;;;;;;;3.07;2.80;;;;;;;24.21;63.80;96302.00;7399892;19;20386;-73
2023/06/29 08:51:28;;;;;;;2.90;2.70;;;;;;;24.29;62.01;96330.38;7399787;19;20354;-73
2023/06/29 08:53:56;;;;;;;5.63;3.57;;;;;;;24.59;62.38;96322.09;7399453;19;20350;-73
2023/06/29 08:56:23;;;;;;;2.57;2.37;;;;;;;24.53;61.02;96312.94;7396466;19;20438;-73
2023/06/29 08:58:52;;;;;;;3.20;2.90;;;;;;;24.28;60.82;96321.50;7399399;19;20416;-73
2023/06/29 09:01:19;;;;;;;3.43;2.80;;;;;;;24.82;59.50;96318.50;7397471;19;20720;-73
2023/06/29 09:03:48;;;;;;;2.30;2.10;;;;;;;24.91;58.70;96315.22;7397504;19;20945;-73
2023/06/29 09:06:15;;;;;;;2.70;2.33;;;;;;;24.76;57.61;96314.78;7398820;19;20442;-73
2023/06/29 09:08:42;;;;;;;2.53;2.30;;;;;;;25.10;54.53;96309.03;7401000;19;20418;-74
2023/06/29 09:11:10;;;;;;;5.70;2.80;;;;;;;24.84;55.52;96326.19;7398634;19;20409;-74
2023/06/29 09:13:37;;;;;;;3.67;2.57;;;;;;;24.84;57.77;96302.63;7401406;19;20915;-74
2023/06/29 09:16:04;;;;;;;4.20;2.80;;;;;;;24.81;57.63;96324.34;7398158;19;20460;-73
2023/06/29 09:18:32;;;;;;;5.07;2.70;;;;;;;24.95;58.33;96311.25;7399418;19;20373;-72
2023/06/29 09:20:59;;;;;;;5.63;3.20;;;;;;;24.04;58.63;96274.91;7398349;19;20375;-74
2023/06/29 09:23:30;;;;;;;5.73;2.70;;;;;;;24.67;57.36;96298.34;7397949;19;20924;-74
2023/06/29 09:25:57;;;;;;;5.20;2.90;;;;;;;24.45;58.50;96271.78;7399339;19;20503;-73
2023/06/29 09:28:25;;;;;;;3.63;2.80;;;;;;;24.76;55.37;96304.72;7398526;19;20369;-74
2023/06/29 09:30:53;;;;;;;4.00;3.60;;;;;;;25.01;55.64;96298.03;7401003;19;20895;-72
2023/06/29 09:33:25;;;;;;;4.80;2.83;;;;;;;24.62;55.68;96301.56;7395977;19;20378;-72
2023/06/29 09:35:53;;;;;;;2.60;2.40;;;;;;;24.69;55.22;96277.81;7397316;19;20429;-74
2023/06/29 09:38:20;;;;;;;3.43;3.13;;;;;;;23.91;57.78;96275.94;7399950;19;20695;-74
2023/06/29 09:40:52;;;;;;;5.23;3.20;;;;;;;23.69;60.98;96284.41;7399252;19;20411;-73
2023/06/29 09:43:25;;;;;;;4.33;2.60;;;;;;;23.82;59.59;96274.53;7396911;19;20895;-73
2023/06/29 09:46:07;;;;;;;5.20;3.00;;;;;;;24.82;57.96;96288.00;7397671;19;20422;-73
2023/06/29 09:48:45;;;;;;;3.37;3.17;;;;;;;25.05;55.39;96285.94;7397697;19;20404;-73
2023/06/29 09:51:22;;;;;;;31.57;3.83;;;;;;;24.52;56.55;96284.38;7397955;19;20391;-74
2023/06/29 09:53:50;;;;;;;3.60;2.73;;;;;;;24.61;56.65;96273.75;7399352;19;20454;-74
2023/06/29 09:56:17;;;;;;;4.70;3.43;;;;;;;25.14;57.25;96260.25;7397884;19;20432;-74
2023/06/29 09:58:45;;;;;;;3.27;3.00;;;;;;;24.79;56.71;96270.66;7398129;19;20395;-74
2023/06/29 10:01:15;;;;;;;2.90;2.70;;;;;;;25.49;55.80;96269.41;7398720;19;20363;-74
2023/06/29 10:03:44;;;;;;;3.80;2.50;;;;;;;26.01;53.48;96282.03;7398419;19;20416;-73
2023/06/29 10:06:15;;;;;;;3.23;2.93;;;;;;;25.34;53.45;96261.66;7396401;19;20430;-74
2023/06/29 10:08:42;;;;;;;3.40;2.50;;;;;;;25.38;53.09;96277.06;7401620;19;20455;-74
2023/06/29 10:11:09;;;;;;;3.40;2.90;;;;;;;25.13;53.21;96273.00;7407029;19;20366;-72
2023/06/29 10:13:49;;;;;;;4.80;2.63;;;;;;;25.21;52.94;96265.47;7414648;19;20371;-73
2023/06/29 10:16:21;;;;;;;2.67;2.47;;;;;;;25.37;53.71;96253.88;7412327;19;20394;-72
2023/06/29 10:18:53;;;;;;;3.23;2.87;;;;;;;25.64;50.32;96262.44;7407532;19;20353;-73
2023/06/29 10:21:20;;;;;;;4.53;2.83;;;;;;;26.04;50.48;96276.53;7416745;19;20899;-73
2023/06/29 10:23:49;;;;;;;3.07;2.77;;;;;;;26.03;50.50;96274.22;7412738;19;20422;-73
2023/06/29 10:26:17;;;;;;;4.33;2.40;;;;;;;26.40;50.40;96259.28;7416451;19;20388;-73
2023/06/29 10:28:44;;;;;;;3.10;2.80;;;;;;;26.42;50.20;96265.78;7420506;19;20386;-73
2023/06/29 10:31:17;;;;;;;5.23;2.50;;;;;;;25.87;49.81;96247.94;7416656;19;20387;-73
2023/06/29 10:33:48;;;;;;;3.30;2.73;;;;;;;25.87;50.39;96251.41;7407601;19;20940;-72
2023/06/29 10:36:17;;;;;;;3.47;3.00;;;;;;;26.01;50.01;96238.66;7408260;19;20422;-72
2023/06/29 10:38:44;;;;;;;3.27;3.00;;;;;;;25.05;51.62;96228.34;7414434;19;20406;-72
2023/06/29 10:41:27;;;;;;;3.00;2.80;;;;;;;24.97;51.64;96194.50;7415260;19;20384;-73
2023/06/29 10:44:00;;;;;;;3.43;3.10;;;;;;;24.11;53.91;96220.72;7413819;19;20394;-73
2023/06/29 10:46:59;;;;;;;2.87;2.67;;;;;;;25.27;51.51;96232.06;7412308;19;20464;-73
2023/06/29 10:49:27;;;;;;;4.63;3.27;;;;;;;25.63;49.72;96225.72;7414417;19;21048;-73
2023/06/29 10:52:00;;;;;;;2.47;2.03;;;;;;;26.22;50.28;96235.38;7425098;19;20414;-75
2023/06/29 10:54:27;;;;;;;4.70;2.23;;;;;;;26.57;47.93;96222.72;7427321;19;21040;-73
2023/06/29 10:57:02;;;;;;;4.00;2.50;;;;;;;26.75;47.20;96233.81;7422927;19;20442;-73
2023/06/29 10:59:29;;;;;;;5.50;2.60;;;;;;;26.66;46.62;96211.25;7424030;19;20398;-74
2023/06/29 11:01:57;;;;;;;3.60;2.83;;;;;;;27.05;47.07;96245.31;7425302;19;20411;-73
2023/06/29 11:04:24;;;;;;;3.50;2.90;;;;;;;26.69;46.12;96208.41;7420289;19;20441;-73
2023/06/29 11:06:51;;;;;;;2.77;2.57;;;;;;;26.79;45.97;96223.59;7422755;19;20405;-72
2023/06/29 11:09:19;;;;;;;3.53;2.57;;;;;;;27.38;46.44;96234.94;7417314;19;20392;-72
2023/06/29 11:11:48;;;;;;;3.97;3.00;;;;;;;27.49;45.04;96229.13;7421011;19;20394;-72
2023/06/29 11:14:17;;;;;;;3.00;2.37;;;;;;;27.39;44.82;96234.50;7421899;19;20910;-72
2023/06/29 11:16:44;;;;;;;2.43;2.10;;;;;;;27.37;45.01;96196.16;7418631;19;20446;-72
2023/06/29 11:19:12;;;;;;;4.10;2.63;;;;;;;27.61;45.77;96228.34;7421147;19;20359;-72
2023/06/29 11:21:40;;;;;;;2.93;2.60;;;;;;;27.51;46.72;96216.66;7421251;19;20385;-72
2023/06/29 11:24:09;;;;;;;3.60;2.57;;;;;;;26.40;47.75;96213.19;7417547;19;20382;-72
2023/06/29 11:26:37;;;;;;;3.13;2.90;;;;;;;27.20;48.19;96204.88;7421312;19;20425;-73
2023/06/29 11:29:08;;;;;;;2.47;2.27;;;;;;;26.49;48.40;96214.06;7413207;19;20380;-73
2023/06/29 11:31:35;;;;;;;3.17;2.87;;;;;;;27.10;48.72;96204.03;7413950;19;20371;-73
2023/06/29 11:34:02;;;;;;;3.83;2.60;;;;;;;27.67;47.04;96213.78;7419222;19;20379;-74